createdAt,value
2023-12-19T00:02:14.096Z,8.21
2023-12-19T00:04:44.549Z,8.23
2023-12-19T00:07:15.090Z,8.25
2023-12-19T00:09:46.016Z,8.28
2023-12-19T00:12:16.600Z,8.30
2023-12-19T00:14:47.088Z,8.33
2023-12-19T00:17:17.583Z,8.36
2023-12-19T00:19:48.302Z,8.38
2023-12-19T00:22:18.921Z,8.41
2023-12-19T00:24:49.486Z,8.43
2023-12-19T00:27:20.119Z,8.44
2023-12-19T00:29:50.624Z,8.46
2023-12-19T00:32:21.193Z,8.47
2023-12-19T00:34:51.834Z,8.47
2023-12-19T00:37:22.487Z,8.50
2023-12-19T00:39:53.332Z,8.52
2023-12-19T00:42:23.917Z,8.53
2023-12-19T00:44:54.429Z,8.51
2023-12-19T00:47:25.043Z,8.47
2023-12-19T00:49:55.564Z,8.41
2023-12-19T00:52:28.661Z,8.36
2023-12-19T00:54:59.130Z,8.35
2023-12-19T00:57:29.619Z,8.35
2023-12-19T01:00:00.095Z,8.33
2023-12-19T01:02:30.613Z,8.32
2023-12-19T01:05:01.227Z,8.32
2023-12-19T01:07:31.834Z,8.33
2023-12-19T01:10:02.991Z,8.35
2023-12-19T01:12:33.501Z,8.38
2023-12-19T01:15:04.190Z,8.40
2023-12-19T01:17:34.666Z,8.43
2023-12-19T01:20:05.782Z,8.47
2023-12-19T01:22:36.308Z,8.50
2023-12-19T01:25:08.276Z,8.53
2023-12-19T01:27:38.882Z,8.56
2023-12-19T01:30:12.495Z,8.59
2023-12-19T01:32:43.594Z,8.61
2023-12-19T01:35:40.911Z,8.63
2023-12-19T01:38:11.480Z,8.65
2023-12-19T01:40:41.947Z,8.66
2023-12-19T01:43:21.021Z,8.67
2023-12-19T01:45:52.707Z,8.67
2023-12-19T01:48:25.243Z,8.65
2023-12-19T01:50:55.784Z,8.64
2023-12-19T01:53:27.750Z,8.63
2023-12-19T01:55:58.879Z,8.62
2023-12-19T01:58:30.903Z,8.63
2023-12-19T02:01:01.688Z,8.65
2023-12-19T02:03:33.191Z,8.66
2023-12-19T02:06:04.803Z,8.66
2023-12-19T02:08:35.564Z,8.67
2023-12-19T02:11:06.378Z,8.67
2023-12-19T02:13:37.024Z,8.66
2023-12-19T02:16:08.899Z,8.67
2023-12-19T02:18:39.725Z,8.68
2023-12-19T02:21:10.242Z,8.70
2023-12-19T02:23:40.720Z,8.69
2023-12-19T02:26:11.438Z,8.68
2023-12-19T02:28:41.952Z,8.65
2023-12-19T02:31:12.487Z,8.61
2023-12-19T02:33:43.156Z,8.60
2023-12-19T02:36:13.791Z,8.60
2023-12-19T02:38:44.271Z,8.60
2023-12-19T02:41:14.819Z,8.61
2023-12-19T02:43:53.934Z,8.62
2023-12-19T02:46:26.019Z,8.63
2023-12-19T02:48:56.652Z,8.64
2023-12-19T02:51:27.466Z,8.64
2023-12-19T02:53:58.802Z,8.67
2023-12-19T02:56:30.010Z,8.68
2023-12-19T02:59:00.536Z,8.69
2023-12-19T03:01:31.134Z,8.69
2023-12-19T03:04:01.905Z,8.70
2023-12-19T03:06:32.509Z,8.70
2023-12-19T03:09:02.993Z,8.71
2023-12-19T03:11:33.502Z,8.72
2023-12-19T03:14:04.374Z,8.72
2023-12-19T03:16:34.991Z,8.71
2023-12-19T03:19:05.526Z,8.71
2023-12-19T03:21:36.140Z,8.72
2023-12-19T03:24:07.602Z,8.73
2023-12-19T03:26:38.097Z,8.74
2023-12-19T03:29:08.571Z,8.76
2023-12-19T03:31:39.253Z,8.75
2023-12-19T03:34:10.013Z,8.74
2023-12-19T03:36:41.202Z,8.72
2023-12-19T03:39:11.714Z,8.68
2023-12-19T03:41:42.203Z,8.65
2023-12-19T03:44:33.109Z,8.64
2023-12-19T03:47:03.643Z,8.62
2023-12-19T03:49:34.229Z,8.62
2023-12-19T03:52:05.121Z,8.63
2023-12-19T03:54:35.628Z,8.65
2023-12-19T03:57:06.462Z,8.66
2023-12-19T03:59:36.921Z,8.68
2023-12-19T04:02:07.768Z,8.67
2023-12-19T04:04:38.706Z,8.67
2023-12-19T04:07:09.361Z,8.66
2023-12-19T04:09:39.879Z,8.66
2023-12-19T04:12:11.170Z,8.67
2023-12-19T04:14:41.616Z,8.67
2023-12-19T04:17:14.664Z,8.66
2023-12-19T04:19:46.764Z,8.66
2023-12-19T04:22:17.397Z,8.65
2023-12-19T04:24:47.929Z,8.66
2023-12-19T04:27:18.527Z,8.66
2023-12-19T04:29:49.033Z,8.67
2023-12-19T04:32:19.505Z,8.69
2023-12-19T04:34:50.035Z,8.71
2023-12-19T04:37:21.565Z,8.73
2023-12-19T04:39:52.125Z,8.74
2023-12-19T04:42:22.623Z,8.74
2023-12-19T04:44:53.193Z,8.74
2023-12-19T04:47:24.054Z,8.75
2023-12-19T04:49:55.077Z,8.77
2023-12-19T04:52:25.837Z,8.78
2023-12-19T04:54:56.796Z,8.79
2023-12-19T04:57:27.425Z,8.79
2023-12-19T04:59:58.427Z,8.80
2023-12-19T05:02:29.508Z,8.80
2023-12-19T05:05:00.046Z,8.80
2023-12-19T05:07:31.566Z,8.80
2023-12-19T05:10:04.841Z,8.80
2023-12-19T05:12:36.364Z,8.80
2023-12-19T05:15:09.520Z,8.80
2023-12-19T05:17:40.139Z,8.82
2023-12-19T05:20:12.637Z,8.83
2023-12-19T05:22:43.365Z,8.84
2023-12-19T05:25:14.297Z,8.84
2023-12-19T05:27:45.200Z,8.82
2023-12-19T05:30:17.217Z,8.83
2023-12-19T05:32:47.877Z,8.84
2023-12-19T05:35:18.441Z,8.85
2023-12-19T05:37:48.917Z,8.86
2023-12-19T05:40:20.097Z,8.87
2023-12-19T05:42:55.653Z,8.88
2023-12-19T05:45:26.373Z,8.89
2023-12-19T05:47:57.079Z,8.89
2023-12-19T05:50:27.657Z,8.89
2023-12-19T05:52:58.121Z,8.88
2023-12-19T05:55:28.677Z,8.86
2023-12-19T05:57:59.467Z,8.84
2023-12-19T06:00:30.157Z,8.79
2023-12-19T06:03:00.676Z,8.76
2023-12-19T06:05:31.337Z,8.73
2023-12-19T06:08:04.209Z,8.71
2023-12-19T06:10:35.288Z,8.68
2023-12-19T06:13:06.370Z,8.67
2023-12-19T06:15:37.650Z,8.67
2023-12-19T06:18:08.547Z,8.66
2023-12-19T06:20:41.107Z,8.66
2023-12-19T06:23:11.711Z,8.67
2023-12-19T06:25:42.163Z,8.68
2023-12-19T06:28:12.796Z,8.71
2023-12-19T06:30:43.457Z,8.72
2023-12-19T06:33:14.195Z,8.72
2023-12-19T06:35:47.755Z,8.72
2023-12-19T06:38:18.271Z,8.72
2023-12-19T06:40:48.792Z,8.72
2023-12-19T06:43:20.568Z,8.73
2023-12-19T06:45:50.639Z,8.72
2023-12-19T06:48:24.773Z,8.71
2023-12-19T06:50:55.504Z,8.72
2023-12-19T06:53:25.947Z,8.71
2023-12-19T06:55:56.617Z,8.70
2023-12-19T06:58:27.123Z,8.70
2023-12-19T07:00:57.661Z,8.71
2023-12-19T07:03:28.370Z,8.70
2023-12-19T07:05:59.170Z,8.69
2023-12-19T07:08:37.950Z,8.69
2023-12-19T07:11:15.310Z,8.69
2023-12-19T07:13:45.948Z,8.68
2023-12-19T07:16:19.107Z,8.68
2023-12-19T07:18:50.553Z,8.69
2023-12-19T07:21:25.649Z,8.68
2023-12-19T07:23:57.029Z,8.69
2023-12-19T07:26:29.091Z,8.70
2023-12-19T07:29:01.069Z,8.72
2023-12-19T07:31:33.449Z,8.73
2023-12-19T07:34:06.304Z,8.74
2023-12-19T07:36:37.884Z,8.75
2023-12-19T07:39:08.469Z,8.78
2023-12-19T07:41:38.960Z,8.79
2023-12-19T07:44:11.197Z,8.80
2023-12-19T07:46:44.317Z,8.81
2023-12-19T07:49:15.014Z,8.83
2023-12-19T07:51:45.717Z,8.84
2023-12-19T07:54:16.400Z,8.85
2023-12-19T07:56:47.030Z,8.88
2023-12-19T07:59:17.647Z,8.90
2023-12-19T08:01:51.721Z,8.94
2023-12-19T08:04:22.489Z,8.97
2023-12-19T08:06:53.118Z,8.99
2023-12-19T08:09:23.730Z,9.01
2023-12-19T08:11:54.181Z,9.03
2023-12-19T08:14:24.750Z,9.04
2023-12-19T08:16:56.169Z,9.05
2023-12-19T08:19:26.838Z,9.05
2023-12-19T08:21:59.608Z,9.05
2023-12-19T08:24:30.331Z,9.05
2023-12-19T08:27:00.921Z,9.08
2023-12-19T08:29:31.427Z,9.11
2023-12-19T08:32:01.967Z,9.13
2023-12-19T08:34:32.544Z,9.16
2023-12-19T08:37:03.963Z,9.18
2023-12-19T08:39:34.535Z,9.21
2023-12-19T08:42:05.502Z,9.25
2023-12-19T08:44:35.993Z,9.29
2023-12-19T08:47:07.493Z,9.34
2023-12-19T08:49:40.745Z,9.39
2023-12-19T08:52:11.642Z,9.43
2023-12-19T08:54:42.527Z,9.47
2023-12-19T08:57:12.977Z,9.52
2023-12-19T08:59:43.451Z,9.56
2023-12-19T09:02:13.990Z,9.60
2023-12-19T09:04:45.051Z,9.64
2023-12-19T09:07:15.644Z,9.69
2023-12-19T09:09:46.276Z,9.74
2023-12-19T09:12:16.737Z,9.77
2023-12-19T09:14:47.283Z,9.82
2023-12-19T09:17:17.783Z,9.85
2023-12-19T09:19:48.351Z,9.88
2023-12-19T09:22:19.053Z,9.91
2023-12-19T09:24:49.625Z,9.94
2023-12-19T09:27:20.186Z,9.97
2023-12-19T09:29:50.709Z,10.01
2023-12-19T09:32:21.275Z,10.04
2023-12-19T09:34:52.420Z,10.08
2023-12-19T09:37:27.634Z,10.11
2023-12-19T09:39:58.598Z,10.17
2023-12-19T09:42:29.449Z,10.24
2023-12-19T09:45:00.682Z,10.30
2023-12-19T09:47:33.622Z,10.36
2023-12-19T09:50:10.029Z,10.41
2023-12-19T09:52:42.917Z,10.45
2023-12-19T09:55:16.243Z,10.47
2023-12-19T09:57:48.030Z,10.46
2023-12-19T10:00:19.915Z,10.47
2023-12-19T10:02:50.444Z,10.49
2023-12-19T10:05:21.188Z,10.49
2023-12-19T10:07:51.914Z,10.50
2023-12-19T10:10:28.342Z,10.52
2023-12-19T10:12:59.091Z,10.53
2023-12-19T10:15:29.690Z,10.55
2023-12-19T10:18:12.756Z,10.57
2023-12-19T10:20:43.940Z,10.57
2023-12-19T10:23:15.413Z,10.58
2023-12-19T10:25:53.697Z,10.59
2023-12-19T10:28:24.337Z,10.60
2023-12-19T10:31:13.971Z,10.61
2023-12-19T10:33:46.732Z,10.62
2023-12-19T10:36:26.722Z,10.63
2023-12-19T10:38:59.306Z,10.65
2023-12-19T10:41:31.171Z,10.67
2023-12-19T10:44:02.959Z,10.69
2023-12-19T10:46:34.726Z,10.72
2023-12-19T10:49:07.188Z,10.74
2023-12-19T10:51:42.834Z,10.77
2023-12-19T10:54:16.293Z,10.79
2023-12-19T10:57:04.180Z,10.81
2023-12-19T10:59:42.466Z,10.83
2023-12-19T11:02:24.911Z,10.84
2023-12-19T11:05:06.954Z,10.86
2023-12-19T11:07:38.068Z,10.86
2023-12-19T11:10:12.243Z,10.88
2023-12-19T11:12:45.049Z,10.89
2023-12-19T11:15:15.829Z,10.89
2023-12-19T11:17:53.870Z,10.91
2023-12-19T11:20:32.180Z,10.93
2023-12-19T11:23:19.210Z,10.94
2023-12-19T11:25:55.462Z,10.95
2023-12-19T11:28:27.314Z,10.97
2023-12-19T11:30:57.815Z,10.98
2023-12-19T11:33:32.920Z,10.99
2023-12-19T11:36:15.199Z,11.02
2023-12-19T11:38:47.057Z,11.02
2023-12-19T11:41:38.663Z,11.03
2023-12-19T11:44:09.122Z,11.03
2023-12-19T11:46:39.596Z,11.04
2023-12-19T11:49:10.702Z,11.05
2023-12-19T11:51:55.642Z,11.07
2023-12-19T11:54:26.547Z,11.09
2023-12-19T11:57:04.632Z,11.10
2023-12-19T11:59:53.570Z,11.12
2023-12-19T12:02:35.194Z,11.14
2023-12-19T12:05:14.201Z,11.16
2023-12-19T12:07:49.248Z,11.17
2023-12-19T12:10:23.408Z,11.16
2023-12-19T12:12:55.947Z,11.16
2023-12-19T12:15:27.869Z,11.17
2023-12-19T12:18:07.974Z,11.19
2023-12-19T12:20:38.770Z,11.18
2023-12-19T12:23:09.274Z,11.18
2023-12-19T12:25:40.567Z,11.17
2023-12-19T12:28:12.768Z,11.17
2023-12-19T12:30:43.666Z,11.18
2023-12-19T12:33:14.314Z,11.19
2023-12-19T12:35:45.082Z,11.17
2023-12-19T12:38:20.231Z,11.17
2023-12-19T12:41:01.172Z,11.17
2023-12-19T12:43:38.920Z,11.19
2023-12-19T12:46:11.128Z,11.19
2023-12-19T12:48:43.415Z,11.16
2023-12-19T12:51:14.596Z,11.16
2023-12-19T12:53:45.242Z,11.16
2023-12-19T12:56:20.131Z,11.17
2023-12-19T12:59:01.054Z,11.17
2023-12-19T13:01:33.050Z,11.18
2023-12-19T13:04:04.301Z,11.19
2023-12-19T13:06:36.187Z,11.18
2023-12-19T13:09:10.950Z,11.18
2023-12-19T13:11:41.902Z,11.18
2023-12-19T13:14:13.297Z,11.20
2023-12-19T13:16:44.066Z,11.21
2023-12-19T13:19:16.279Z,11.21
2023-12-19T13:21:47.676Z,11.20
2023-12-19T13:24:19.157Z,11.19
2023-12-19T13:26:50.905Z,11.17
2023-12-19T13:29:21.649Z,11.16
2023-12-19T13:31:52.190Z,11.15
2023-12-19T13:34:23.806Z,11.16
2023-12-19T13:36:54.476Z,11.17
2023-12-19T13:39:25.127Z,11.18
2023-12-19T13:41:59.173Z,11.18
2023-12-19T13:44:29.831Z,11.19
2023-12-19T13:47:00.431Z,11.18
2023-12-19T13:49:31.226Z,11.18
2023-12-19T13:52:02.184Z,11.19
2023-12-19T13:54:32.782Z,11.20
2023-12-19T13:57:03.338Z,11.19
2023-12-19T13:59:38.329Z,11.17
2023-12-19T14:02:12.812Z,11.18
2023-12-19T14:04:43.987Z,11.17
2023-12-19T14:07:15.682Z,11.16
2023-12-19T14:09:46.858Z,11.15
2023-12-19T14:12:17.412Z,11.16
2023-12-19T14:14:47.985Z,11.15
2023-12-19T14:17:18.452Z,11.15
2023-12-19T14:19:49.300Z,11.14
2023-12-19T14:22:20.101Z,11.12
2023-12-19T14:24:52.788Z,11.11
2023-12-19T14:27:24.288Z,11.08
2023-12-19T14:29:54.894Z,11.06
2023-12-19T14:32:25.455Z,11.05
2023-12-19T14:34:56.874Z,11.04
2023-12-19T14:37:27.691Z,11.04
2023-12-19T14:39:58.206Z,11.02
2023-12-19T14:42:31.240Z,10.99
2023-12-19T14:45:02.322Z,10.96
2023-12-19T14:47:32.849Z,10.93
2023-12-19T14:50:04.037Z,10.93
2023-12-19T14:52:34.729Z,10.96
2023-12-19T14:55:06.570Z,10.98
2023-12-19T14:57:37.209Z,10.98
2023-12-19T15:00:11.926Z,10.99
2023-12-19T15:02:42.721Z,10.97
2023-12-19T15:05:13.410Z,10.96
2023-12-19T15:07:44.406Z,10.96
2023-12-19T15:10:15.200Z,10.98
2023-12-19T15:12:45.845Z,10.97
2023-12-19T15:15:16.711Z,10.97
2023-12-19T15:17:48.004Z,10.98
2023-12-19T15:20:19.629Z,10.98
2023-12-19T15:22:50.168Z,10.98
2023-12-19T15:25:20.736Z,10.97
2023-12-19T15:27:51.431Z,10.98
2023-12-19T15:30:22.149Z,10.99
2023-12-19T15:32:52.648Z,11.00
2023-12-19T15:35:23.143Z,11.01
2023-12-19T15:37:53.630Z,11.02
2023-12-19T15:40:24.939Z,11.02
2023-12-19T15:42:55.440Z,11.03
2023-12-19T15:45:26.019Z,11.03
2023-12-19T15:48:02.293Z,11.03
2023-12-19T15:50:34.014Z,11.03
2023-12-19T15:53:06.265Z,11.01
2023-12-19T15:55:36.807Z,10.99
2023-12-19T15:58:07.427Z,10.98
2023-12-19T16:00:38.723Z,10.98
2023-12-19T16:03:09.473Z,10.98
2023-12-19T16:05:40.770Z,10.98
2023-12-19T16:08:11.466Z,10.98
2023-12-19T16:10:42.055Z,10.99
2023-12-19T16:13:12.596Z,10.98
2023-12-19T16:15:43.167Z,10.98
2023-12-19T16:18:14.141Z,10.99
2023-12-19T16:20:44.954Z,10.98
2023-12-19T16:23:15.479Z,10.99
2023-12-19T16:25:46.101Z,10.98
2023-12-19T16:28:16.604Z,10.98
2023-12-19T16:30:47.398Z,10.98
2023-12-19T16:33:18.001Z,10.98
2023-12-19T16:35:48.614Z,10.97
2023-12-19T16:38:19.222Z,10.99
2023-12-19T16:40:53.653Z,11.01
2023-12-19T16:43:24.193Z,11.00
2023-12-19T16:45:54.715Z,10.98
2023-12-19T16:48:25.403Z,10.98
2023-12-19T16:50:56.160Z,11.01
2023-12-19T16:53:27.070Z,11.02
2023-12-19T16:55:57.592Z,11.02
2023-12-19T16:58:37.110Z,11.03
2023-12-19T17:01:16.504Z,11.05
2023-12-19T17:03:48.331Z,11.04
2023-12-19T17:06:20.642Z,11.02
2023-12-19T17:08:53.707Z,11.04
2023-12-19T17:11:24.806Z,11.05
2023-12-19T17:13:56.112Z,11.04
2023-12-19T17:16:27.120Z,11.01
2023-12-19T17:18:57.834Z,11.01
2023-12-19T17:21:29.141Z,11.05
2023-12-19T17:23:59.688Z,11.06
2023-12-19T17:26:31.073Z,11.06
2023-12-19T17:29:01.731Z,11.05
2023-12-19T17:31:34.763Z,11.04
2023-12-19T17:34:05.574Z,11.04
2023-12-19T17:36:36.153Z,11.01
2023-12-19T17:39:06.908Z,11.02
2023-12-19T17:41:42.384Z,11.04
2023-12-19T17:44:12.857Z,11.04
2023-12-19T17:46:43.314Z,11.03
2023-12-19T17:49:14.002Z,11.05
2023-12-19T17:51:44.961Z,11.04
2023-12-19T17:54:15.610Z,11.05
2023-12-19T17:56:46.094Z,11.05
2023-12-19T17:59:16.638Z,11.06
2023-12-19T18:01:47.843Z,11.05
2023-12-19T18:04:18.459Z,11.05
2023-12-19T18:06:49.067Z,11.06
2023-12-19T18:09:20.884Z,11.07
2023-12-19T18:11:53.869Z,11.07
2023-12-19T18:14:24.604Z,11.08
2023-12-19T18:16:55.608Z,11.08
2023-12-19T18:19:26.197Z,11.09
2023-12-19T18:21:56.777Z,11.09
2023-12-19T18:24:27.318Z,11.09
2023-12-19T18:26:57.925Z,11.09
2023-12-19T18:29:28.538Z,11.09
2023-12-19T18:31:59.021Z,11.08
2023-12-19T18:34:29.979Z,11.06
2023-12-19T18:37:00.817Z,11.05
2023-12-19T18:39:31.426Z,11.05
2023-12-19T18:42:01.956Z,11.05
2023-12-19T18:44:32.423Z,11.04
2023-12-19T18:47:03.867Z,11.02
2023-12-19T18:49:34.545Z,10.99
2023-12-19T18:52:05.828Z,10.97
2023-12-19T18:54:36.347Z,10.94
2023-12-19T18:57:07.864Z,10.93
2023-12-19T18:59:38.944Z,10.91
2023-12-19T19:02:09.591Z,10.87
2023-12-19T19:04:40.283Z,10.83
2023-12-19T19:07:10.975Z,10.80
2023-12-19T19:09:42.794Z,10.75
2023-12-19T19:12:13.320Z,10.72
2023-12-19T19:14:43.873Z,10.71
2023-12-19T19:17:15.191Z,10.68
2023-12-19T19:19:46.905Z,10.65
2023-12-19T19:22:17.606Z,10.62
2023-12-19T19:24:48.291Z,10.61
2023-12-19T19:27:18.816Z,10.60
2023-12-19T19:29:49.303Z,10.58
2023-12-19T19:32:20.236Z,10.57
2023-12-19T19:34:51.080Z,10.56
2023-12-19T19:37:22.759Z,10.55
2023-12-19T19:39:53.419Z,10.55
2023-12-19T19:42:25.781Z,10.54
2023-12-19T19:44:56.715Z,10.54
2023-12-19T19:47:27.220Z,10.54
2023-12-19T19:49:58.780Z,10.52
2023-12-19T19:52:30.036Z,10.50
2023-12-19T19:55:01.576Z,10.49
2023-12-19T19:57:32.867Z,10.49
2023-12-19T20:00:03.429Z,10.47
2023-12-19T20:02:34.674Z,10.45
2023-12-19T20:05:06.253Z,10.45
2023-12-19T20:07:37.509Z,10.44
2023-12-19T20:10:09.340Z,10.44
2023-12-19T20:12:39.952Z,10.46
2023-12-19T20:15:11.439Z,10.46
2023-12-19T20:17:43.332Z,10.43
2023-12-19T20:20:15.652Z,10.43
2023-12-19T20:22:44.900Z,10.43
2023-12-19T20:25:17.083Z,10.40
2023-12-19T20:27:49.219Z,10.39
2023-12-19T20:30:20.963Z,10.39
2023-12-19T20:32:51.716Z,10.38
2023-12-19T20:35:22.292Z,10.37
2023-12-19T20:37:53.054Z,10.36
2023-12-19T20:40:23.641Z,10.34
2023-12-19T20:42:54.573Z,10.35
2023-12-19T20:45:25.473Z,10.34
2023-12-19T20:47:56.038Z,10.32
2023-12-19T20:50:26.624Z,10.31
2023-12-19T20:52:57.778Z,10.31
2023-12-19T20:55:28.476Z,10.30
2023-12-19T20:58:00.353Z,10.27
2023-12-19T21:00:31.368Z,10.24
2023-12-19T21:03:02.016Z,10.22
2023-12-19T21:05:32.524Z,10.19
2023-12-19T21:08:03.024Z,10.16
2023-12-19T21:10:33.568Z,10.15
2023-12-19T21:13:04.144Z,10.15
2023-12-19T21:15:35.441Z,10.11
2023-12-19T21:18:07.516Z,10.07
2023-12-19T21:20:36.584Z,10.04
2023-12-19T21:23:07.154Z,10.01
2023-12-19T21:25:37.646Z,9.99
2023-12-19T21:28:08.625Z,9.97
2023-12-19T21:30:39.238Z,10.00
2023-12-19T21:33:09.887Z,10.02
2023-12-19T21:35:40.459Z,10.02
2023-12-19T21:38:12.816Z,10.01
2023-12-19T21:40:44.793Z,10.00
2023-12-19T21:43:16.917Z,10.00
2023-12-19T21:45:46.084Z,9.99
2023-12-19T21:48:16.765Z,9.98
2023-12-19T21:50:48.583Z,9.98
2023-12-19T21:53:19.095Z,9.96
2023-12-19T21:55:49.643Z,9.91
2023-12-19T21:58:20.310Z,9.88
2023-12-19T22:00:51.147Z,9.85
2023-12-19T22:03:21.635Z,9.82
2023-12-19T22:05:52.097Z,9.85
2023-12-19T22:08:22.568Z,9.86
2023-12-19T22:10:53.125Z,9.86
2023-12-19T22:13:23.796Z,9.87
2023-12-19T22:15:54.469Z,9.87
2023-12-19T22:18:24.983Z,9.88
2023-12-19T22:20:55.681Z,9.89
2023-12-19T22:23:26.385Z,9.89
2023-12-19T22:25:57.616Z,9.89
2023-12-19T22:28:28.575Z,9.89
2023-12-19T22:30:59.116Z,9.88
2023-12-19T22:33:30.423Z,9.87
2023-12-19T22:36:00.921Z,9.84
2023-12-19T22:38:31.407Z,9.82
2023-12-19T22:41:02.224Z,9.83
2023-12-19T22:43:32.924Z,9.85
2023-12-19T22:46:03.423Z,9.85
2023-12-19T22:48:33.902Z,9.83
2023-12-19T22:51:04.724Z,9.81
2023-12-19T22:53:35.218Z,9.79
2023-12-19T22:56:06.006Z,9.78
2023-12-19T22:58:36.799Z,9.75
2023-12-19T23:01:07.678Z,9.74
2023-12-19T23:03:38.225Z,9.72
2023-12-19T23:06:18.994Z,9.69
2023-12-19T23:08:50.331Z,9.63
2023-12-19T23:11:20.868Z,9.63
2023-12-19T23:13:51.675Z,9.65
2023-12-19T23:16:22.454Z,9.66
2023-12-19T23:18:54.589Z,9.65
2023-12-19T23:21:23.643Z,9.66
2023-12-19T23:23:54.738Z,9.63
2023-12-19T23:26:26.132Z,9.61
2023-12-19T23:28:57.319Z,9.62
2023-12-19T23:31:34.171Z,9.61
2023-12-19T23:34:10.571Z,9.59
2023-12-19T23:36:41.660Z,9.58
2023-12-19T23:39:12.469Z,9.57
2023-12-19T23:41:42.976Z,9.59
2023-12-19T23:44:13.430Z,9.61
2023-12-19T23:46:44.008Z,9.61
2023-12-19T23:49:14.550Z,9.61
2023-12-19T23:51:45.194Z,9.62
2023-12-19T23:54:16.158Z,9.62
2023-12-19T23:56:47.273Z,9.62
2023-12-19T23:59:17.761Z,9.61
